Time;durP1;ratioP1;P1;durP2;ratioP2;P2;SDS_P1;SDS_P2;PMS_P1;PMS_P2;Temp;Humidity;BMP_temperature;BMP_pressure;BME280_temperature;BME280_humidity;BME280_pressure;Samples;Min_cycle;Max_cycle;Signal;HPM_P1;HPM_P2
2023/12/28 00:00:54;;;;;;;;;;;;;;;5.68;70.30;100391.84;4369996;32;33478;-87
2023/12/28 00:03:26;;;;;;;;;;;;;;;5.92;69.36;100391.38;4369312;32;34595;-87
2023/12/28 00:06:03;;;;;;;;;;;;;;;5.83;70.04;100389.53;4367914;32;33565;-87
2023/12/28 00:08:41;;;;;;;;;;;;;;;5.80;70.34;100383.44;4373366;32;33351;-87
2023/12/28 00:11:20;;;;;;;;;;;;;;;5.55;70.67;100390.72;4373626;32;34109;-87
2023/12/28 00:13:49;;;;;;;;;;;;;;;5.47;71.49;100392.31;4365778;32;34234;-87
2023/12/28 00:16:22;;;;;;;;;;;;;;;5.79;70.42;100392.87;4361913;32;33636;-87
2023/12/28 00:18:51;;;;;;;;;;;;;;;6.03;69.79;100389.87;4369587;32;32869;-88
2023/12/28 00:21:22;;;;;;;;;;;;;;;6.16;68.66;100390.94;4368204;32;33911;-86
2023/12/28 00:23:51;;;;;;;;;;;;;;;6.00;69.03;100386.41;4359282;32;35083;-86
2023/12/28 00:26:29;;;;;;;;;;;;;;;5.93;69.30;100395.69;4369139;32;34492;-87
2023/12/28 00:29:02;;;;;;;;;;;;;;;5.85;69.41;100395.56;4370273;32;30912;-87
2023/12/28 00:31:35;;;;;;;;;;;;;;;5.44;70.91;100390.53;4368969;32;34899;-87
2023/12/28 00:34:04;;;;;;;;;;;;;;;5.49;70.90;100394.06;4373668;32;34053;-88
2023/12/28 00:36:36;;;;;;;;;;;;;;;5.53;71.43;100401.00;4369062;32;33291;-87
2023/12/28 00:41:50;;;;;;;;;;;;;;;5.59;70.53;100391.66;4367587;32;35042;-86
2023/12/28 00:44:18;;;;;;;;;;;;;;;5.72;70.08;100396.19;4369499;32;34092;-87
2023/12/28 00:46:48;;;;;;;;;;;;;;;5.74;70.14;100394.50;4374704;32;33298;-88
2023/12/28 00:49:17;;;;;;;;;;;;;;;5.75;70.01;100396.22;4361043;32;32586;-87
2023/12/28 00:51:46;;;;;;;;;;;;;;;5.91;69.51;100394.78;4369298;32;34356;-87
2023/12/28 00:54:15;;;;;;;;;;;;;;;5.75;69.76;100398.81;4369098;32;33827;-86
2023/12/28 00:56:44;;;;;;;;;;;;;;;5.83;69.50;100404.09;4374193;32;34891;-87
2023/12/28 00:59:14;;;;;;;;;;;;;;;5.81;69.38;100398.91;4373717;32;33030;-87
2023/12/28 01:01:42;;;;;;;;;;;;;;;5.89;68.87;100406.78;4369296;32;33835;-88
2023/12/28 01:04:15;;;;;;;;;;;;;;;4.51;75.41;100412.59;4355194;32;32700;-87
2023/12/28 01:06:44;;;;;;;;;;;;;;;5.42;72.27;100401.66;4369253;32;34817;-88
2023/12/28 01:09:18;;;;;;;;;;;;;;;5.56;71.32;100402.78;4376005;32;32407;-88
2023/12/28 01:11:47;;;;;;;;;;;;;;;5.33;71.98;100410.91;4372730;32;33813;-88
2023/12/28 01:14:18;;;;;;;;;;;;;;;5.60;71.33;100411.41;4371429;32;33697;-88
2023/12/28 01:16:46;;;;;;;;;;;;;;;5.37;71.80;100411.84;4369392;32;34171;-87
2023/12/28 01:19:23;;;;;;;;;;;;;;;5.55;71.43;100409.59;4374975;32;34535;-87
2023/12/28 01:21:52;;;;;;;;;;;;;;;5.22;72.44;100415.00;4375672;32;33587;-87
2023/12/28 01:24:37;;;;;;;;;;;;;;;5.11;73.62;100413.87;4360818;32;32999;-87
2023/12/28 01:27:27;;;;;;;;;;;;;;;5.39;72.85;100409.28;4342325;32;34697;-88
2023/12/28 01:29:59;;;;;;;;;;;;;;;5.56;71.59;100405.34;4340428;32;32602;-87
2023/12/28 01:32:34;;;;;;;;;;;;;;;5.40;72.59;100401.59;4338737;32;33353;-88
2023/12/28 01:35:05;;;;;;;;;;;;;;;5.19;72.73;100389.19;4342311;32;34202;-87
2023/12/28 01:37:44;;;;;;;;;;;;;;;5.70;71.43;100392.69;4340460;32;33459;-87
2023/12/28 01:40:15;;;;;;;;;;;;;;;5.63;71.00;100390.84;4342710;32;34783;-87
2023/12/28 01:42:43;;;;;;;;;;;;;;;5.57;71.37;100389.06;4341582;32;33570;-88
2023/12/28 01:45:22;;;;;;;;;;;;;;;5.51;71.49;100379.53;4341607;32;34519;-87
2023/12/28 01:47:50;;;;;;;;;;;;;;;5.32;72.22;100382.59;4343677;32;33974;-87
2023/12/28 01:50:24;;;;;;;;;;;;;;;5.51;70.86;100379.53;4344030;32;33195;-88
2023/12/28 01:53:10;;;;;;;;;;;;;;;5.34;71.24;100378.34;4345858;32;33057;-87
2023/12/28 01:55:43;;;;;;;;;;;;;;;5.08;73.13;100385.53;4344580;32;34236;-87
2023/12/28 01:58:21;;;;;;;;;;;;;;;5.07;72.84;100374.41;4338674;32;33343;-87
2023/12/28 02:01:01;;;;;;;;;;;;;;;5.07;72.52;100366.69;4345947;32;33331;-87
2023/12/28 02:03:32;;;;;;;;;;;;;;;5.43;71.81;100368.19;4348597;32;34670;-87
2023/12/28 02:06:05;;;;;;;;;;;;;;;5.54;71.04;100365.84;4355710;32;33626;-87
2023/12/28 02:08:34;;;;;;;;;;;;;;;5.52;70.84;100362.37;4359211;32;33496;-86
2023/12/28 02:11:04;;;;;;;;;;;;;;;5.52;70.75;100358.09;4364283;32;32641;-87
2023/12/28 02:13:34;;;;;;;;;;;;;;;5.19;72.14;100353.16;4368755;32;33904;-87
2023/12/28 02:16:09;;;;;;;;;;;;;;;5.48;70.71;100356.28;4367166;32;33363;-87
2023/12/28 02:18:38;;;;;;;;;;;;;;;5.23;71.21;100352.41;4374367;32;33762;-86
2023/12/28 02:21:11;;;;;;;;;;;;;;;5.12;72.92;100353.88;4368286;32;32990;-87
2023/12/28 02:23:52;;;;;;;;;;;;;;;5.15;72.21;100351.41;4372028;32;34775;-87
2023/12/28 02:26:32;;;;;;;;;;;;;;;5.00;74.02;100357.12;4375134;32;33918;-88
2023/12/28 02:29:03;;;;;;;;;;;;;;;5.29;72.19;100349.97;4371245;32;33673;-86
2023/12/28 02:31:35;;;;;;;;;;;;;;;5.21;72.29;100343.78;4359300;32;34133;-87
2023/12/28 02:34:05;;;;;;;;;;;;;;;5.06;72.76;100339.22;4356429;32;34290;-87
2023/12/28 02:36:37;;;;;;;;;;;;;;;5.21;71.65;100340.34;4360472;32;33763;-88
2023/12/28 02:39:09;;;;;;;;;;;;;;;5.04;72.88;100340.88;4365965;32;33760;-87
2023/12/28 02:41:40;;;;;;;;;;;;;;;5.01;73.19;100334.81;4369649;32;34070;-87
2023/12/28 02:44:08;;;;;;;;;;;;;;;4.94;73.24;100330.41;4369647;32;33481;-88
2023/12/28 02:46:37;;;;;;;;;;;;;;;5.10;73.17;100325.59;4370463;32;33951;-88
2023/12/28 02:49:05;;;;;;;;;;;;;;;5.32;71.57;100331.13;4374577;32;33676;-87
2023/12/28 02:51:42;;;;;;;;;;;;;;;5.21;72.07;100330.91;4370355;32;32770;-88
2023/12/28 02:54:11;;;;;;;;;;;;;;;5.24;71.60;100322.37;4368708;32;33903;-87
2023/12/28 02:56:41;;;;;;;;;;;;;;;5.44;70.87;100321.06;4369648;32;33944;-88
2023/12/28 02:59:11;;;;;;;;;;;;;;;5.44;70.42;100322.78;4369092;32;35025;-88
2023/12/28 03:01:40;;;;;;;;;;;;;;;5.39;70.44;100320.12;4375491;32;33785;-87
2023/12/28 03:04:09;;;;;;;;;;;;;;;5.44;69.91;100320.22;4368551;32;33401;-87
2023/12/28 03:06:41;;;;;;;;;;;;;;;5.33;70.37;100313.12;4371156;32;34646;-88
2023/12/28 03:09:11;;;;;;;;;;;;;;;5.55;69.13;100305.78;4375278;32;33974;-88
2023/12/28 03:11:54;;;;;;;;;;;;;;;5.52;68.91;100318.63;4376076;32;34003;-88
2023/12/28 03:14:24;;;;;;;;;;;;;;;5.36;69.64;100317.47;4376457;32;34517;-88
2023/12/28 03:16:55;;;;;;;;;;;;;;;4.99;71.04;100318.50;4370635;32;34118;-88
2023/12/28 03:19:24;;;;;;;;;;;;;;;4.99;71.54;100309.06;4373306;32;33866;-87
2023/12/28 03:21:56;;;;;;;;;;;;;;;5.10;70.48;100307.59;4368260;32;32657;-88
2023/12/28 03:24:25;;;;;;;;;;;;;;;5.19;70.56;100301.72;4373213;32;34825;-88
2023/12/28 03:26:58;;;;;;;;;;;;;;;5.24;70.40;100301.81;4357187;32;33619;-88
2023/12/28 03:29:31;;;;;;;;;;;;;;;5.15;70.40;100305.09;4371934;32;33532;-88
2023/12/28 03:32:01;;;;;;;;;;;;;;;4.95;71.37;100304.69;4370670;32;33301;-87
2023/12/28 03:34:34;;;;;;;;;;;;;;;5.13;70.36;100287.06;4371208;32;33702;-88
2023/12/28 03:37:02;;;;;;;;;;;;;;;5.16;70.48;100285.38;4375718;32;34525;-87
2023/12/28 03:39:31;;;;;;;;;;;;;;;5.19;70.11;100290.56;4371200;32;34342;-87
2023/12/28 03:42:04;;;;;;;;;;;;;;;5.10;69.93;100287.00;4363957;32;32318;-88
2023/12/28 03:44:34;;;;;;;;;;;;;;;5.12;70.35;100287.00;4371481;32;33307;-87
2023/12/28 03:47:03;;;;;;;;;;;;;;;4.76;70.99;100279.47;4374558;32;33822;-87
2023/12/28 03:49:33;;;;;;;;;;;;;;;4.94;70.75;100274.69;4373725;32;34071;-88
2023/12/28 03:52:06;;;;;;;;;;;;;;;5.10;70.18;100281.00;4371618;32;33496;-87
2023/12/28 03:54:35;;;;;;;;;;;;;;;4.99;70.33;100278.22;4361094;32;33930;-88
2023/12/28 03:57:10;;;;;;;;;;;;;;;4.92;70.92;100268.66;4367846;32;33562;-88
2023/12/28 03:59:42;;;;;;;;;;;;;;;4.57;71.90;100260.28;4376000;32;34830;-88
2023/12/28 04:02:10;;;;;;;;;;;;;;;4.66;72.21;100265.56;4371418;32;34057;-88
2023/12/28 04:04:41;;;;;;;;;;;;;;;4.68;71.37;100262.19;4370940;32;33832;-88
2023/12/28 04:07:10;;;;;;;;;;;;;;;4.71;70.95;100263.94;4371033;32;34457;-87
2023/12/28 04:09:44;;;;;;;;;;;;;;;4.90;70.42;100263.50;4375763;32;33803;-88
2023/12/28 04:12:14;;;;;;;;;;;;;;;4.86;70.26;100266.84;4375979;32;32941;-87
2023/12/28 04:14:44;;;;;;;;;;;;;;;4.83;70.11;100263.34;4371265;32;34307;-87
2023/12/28 04:17:12;;;;;;;;;;;;;;;4.41;72.33;100267.66;4369244;32;34988;-88
2023/12/28 04:19:41;;;;;;;;;;;;;;;4.43;72.24;100271.13;4370676;32;34167;-87
2023/12/28 04:22:13;;;;;;;;;;;;;;;4.65;71.86;100263.84;4375111;32;34300;-88
2023/12/28 04:24:46;;;;;;;;;;;;;;;4.81;71.39;100263.31;4370292;32;33359;-88
2023/12/28 04:27:16;;;;;;;;;;;;;;;4.16;74.24;100250.84;4370532;32;34321;-88
2023/12/28 04:29:46;;;;;;;;;;;;;;;4.33;74.58;100250.34;4370051;32;33835;-87
2023/12/28 04:32:23;;;;;;;;;;;;;;;4.58;73.47;100254.28;4370192;32;32667;-88
2023/12/28 04:34:58;;;;;;;;;;;;;;;4.68;72.80;100248.47;4368719;32;33953;-87
2023/12/28 04:37:28;;;;;;;;;;;;;;;4.57;72.54;100240.56;4370332;32;34832;-87
2023/12/28 04:40:03;;;;;;;;;;;;;;;4.22;73.07;100240.69;4372773;32;33562;-87
2023/12/28 04:42:35;;;;;;;;;;;;;;;4.27;73.06;100240.81;4371372;32;33217;-87
2023/12/28 04:45:04;;;;;;;;;;;;;;;4.00;73.92;100239.38;4376248;32;33212;-88
2023/12/28 04:47:35;;;;;;;;;;;;;;;4.17;72.92;100232.03;4365866;32;34457;-87
2023/12/28 04:50:04;;;;;;;;;;;;;;;4.45;72.27;100233.50;4371935;32;33641;-88
2023/12/28 04:52:33;;;;;;;;;;;;;;;4.05;72.98;100231.78;4371879;32;33962;-87
2023/12/28 04:55:03;;;;;;;;;;;;;;;3.96;73.25;100237.59;4371936;32;34159;-87
2023/12/28 04:57:33;;;;;;;;;;;;;;;3.90;74.35;100231.44;4377181;32;33650;-87
2023/12/28 05:00:08;;;;;;;;;;;;;;;4.46;71.77;100234.34;4373047;32;33642;-87
2023/12/28 05:02:36;;;;;;;;;;;;;;;4.56;71.02;100235.41;4369419;32;32963;-88
2023/12/28 05:05:11;;;;;;;;;;;;;;;4.51;70.83;100237.88;4358575;32;33935;-88
2023/12/28 05:07:42;;;;;;;;;;;;;;;4.55;70.53;100237.09;4372572;32;33810;-87
2023/12/28 05:10:10;;;;;;;;;;;;;;;4.64;69.64;100239.88;4376785;32;33671;-87
2023/12/28 05:12:40;;;;;;;;;;;;;;;3.99;71.67;100235.09;4358746;32;32087;-87
2023/12/28 05:15:12;;;;;;;;;;;;;;;4.58;69.87;100241.44;4371837;32;33899;-87
2023/12/28 05:17:43;;;;;;;;;;;;;;;4.43;69.98;100242.84;4373375;32;34350;-88
2023/12/28 05:20:12;;;;;;;;;;;;;;;4.35;70.23;100246.97;4376349;32;33492;-87
2023/12/28 05:22:50;;;;;;;;;;;;;;;4.35;70.51;100252.12;4371973;32;33856;-87
2023/12/28 05:25:18;;;;;;;;;;;;;;;4.40;70.13;100249.66;4371659;32;34093;-87
2023/12/28 05:27:55;;;;;;;;;;;;;;;4.51;69.43;100250.72;4374134;32;32749;-87
2023/12/28 05:30:30;;;;;;;;;;;;;;;4.42;69.68;100251.41;4372239;32;34792;-87
2023/12/28 05:32:58;;;;;;;;;;;;;;;4.39;69.39;100246.19;4376730;32;32902;-87
2023/12/28 05:35:28;;;;;;;;;;;;;;;4.40;69.31;100244.50;4371965;32;33753;-88
2023/12/28 05:37:59;;;;;;;;;;;;;;;4.26;69.24;100254.50;4373392;32;33533;-87
2023/12/28 05:40:28;;;;;;;;;;;;;;;4.41;69.21;100248.81;4374000;32;33982;-87
2023/12/28 05:42:59;;;;;;;;;;;;;;;4.32;69.49;100246.91;4375377;32;33659;-88
2023/12/28 05:45:35;;;;;;;;;;;;;;;4.32;68.96;100239.19;4376303;32;33157;-88
2023/12/28 05:48:03;;;;;;;;;;;;;;;4.30;69.53;100247.69;4372050;32;34168;-87
2023/12/28 05:50:34;;;;;;;;;;;;;;;4.19;69.66;100247.50;4373228;32;33355;-88
2023/12/28 05:53:03;;;;;;;;;;;;;;;4.33;68.76;100258.06;4357930;32;32298;-87
2023/12/28 05:55:33;;;;;;;;;;;;;;;4.15;69.47;100255.94;4376056;32;33815;-88
2023/12/28 05:58:04;;;;;;;;;;;;;;;4.18;69.71;100259.47;4371457;32;33739;-88
2023/12/28 06:00:33;;;;;;;;;;;;;;;4.18;69.64;100268.84;4368903;32;34416;-88
2023/12/28 06:03:05;;;;;;;;;;;;;;;4.21;69.26;100262.09;4349186;32;32241;-87
2023/12/28 06:05:33;;;;;;;;;;;;;;;4.30;69.16;100252.84;4371358;32;33590;-88
2023/12/28 06:08:05;;;;;;;;;;;;;;;4.30;69.33;100252.84;4376637;32;33184;-87
2023/12/28 06:10:35;;;;;;;;;;;;;;;4.16;69.44;100253.44;4371790;32;33914;-87
2023/12/28 06:13:10;;;;;;;;;;;;;;;4.24;69.12;100243.31;4371837;32;32703;-87
2023/12/28 06:15:39;;;;;;;;;;;;;;;4.17;69.21;100244.88;4370923;32;34205;-87
2023/12/28 06:18:11;;;;;;;;;;;;;;;4.13;69.60;100255.94;4367072;32;35490;-87
2023/12/28 06:20:39;;;;;;;;;;;;;;;4.32;68.93;100256.31;4365194;32;34263;-88
2023/12/28 06:23:14;;;;;;;;;;;;;;;4.28;68.52;100263.97;4370901;32;31929;-87
2023/12/28 06:25:43;;;;;;;;;;;;;;;4.19;68.73;100252.62;4370774;32;34915;-87
2023/12/28 06:28:13;;;;;;;;;;;;;;;4.12;68.91;100248.19;4373469;32;33876;-87
2023/12/28 06:30:48;;;;;;;;;;;;;;;4.22;68.63;100245.84;4375762;32;33598;-87
2023/12/28 06:33:17;;;;;;;;;;;;;;;3.94;69.09;100234.13;4371274;32;33832;-87
2023/12/28 06:35:49;;;;;;;;;;;;;;;3.97;69.30;100230.75;4366682;32;32854;-87
2023/12/28 06:38:17;;;;;;;;;;;;;;;4.02;69.14;100231.72;4361746;32;34260;-87
2023/12/28 06:40:46;;;;;;;;;;;;;;;3.99;69.49;100244.50;4376020;32;33937;-87
2023/12/28 06:43:19;;;;;;;;;;;;;;;4.12;68.85;100261.88;4372889;32;33401;-87
2023/12/28 06:45:51;;;;;;;;;;;;;;;4.03;68.79;100275.38;4370854;32;33952;-87
2023/12/28 06:48:20;;;;;;;;;;;;;;;4.09;68.69;100282.38;4370432;32;33418;-87
2023/12/28 06:50:50;;;;;;;;;;;;;;;4.08;68.52;100288.31;4342767;32;33221;-87
2023/12/28 06:53:19;;;;;;;;;;;;;;;3.95;68.97;100299.16;4371988;32;33577;-88
2023/12/28 06:55:47;;;;;;;;;;;;;;;3.91;68.95;100297.34;4371447;32;34166;-87
2023/12/28 06:58:21;;;;;;;;;;;;;;;3.71;69.58;100292.59;4371478;32;33648;-88
2023/12/28 07:00:50;;;;;;;;;;;;;;;3.71;69.71;100290.03;4373239;32;33726;-87
2023/12/28 07:03:20;;;;;;;;;;;;;;;3.77;69.31;100295.31;4374482;32;32345;-87
2023/12/28 07:05:55;;;;;;;;;;;;;;;4.00;68.59;100295.00;4374398;32;33744;-87
2023/12/28 07:08:23;;;;;;;;;;;;;;;3.94;69.04;100285.47;4369215;32;33714;-87
2023/12/28 07:10:57;;;;;;;;;;;;;;;3.87;69.26;100292.94;4359333;32;34237;-87
2023/12/28 07:13:27;;;;;;;;;;;;;;;3.78;69.61;100280.78;4371485;32;33263;-87
2023/12/28 07:15:59;;;;;;;;;;;;;;;3.90;69.21;100277.66;4376116;32;33431;-88
2023/12/28 07:18:29;;;;;;;;;;;;;;;3.76;70.00;100285.00;4371475;32;33639;-88
2023/12/28 07:21:00;;;;;;;;;;;;;;;3.68;70.24;100282.28;4373261;32;33550;-88
2023/12/28 07:23:28;;;;;;;;;;;;;;;3.81;70.09;100276.56;4371004;32;33482;-87
2023/12/28 07:26:03;;;;;;;;;;;;;;;3.81;69.78;100279.16;4366537;32;34870;-88
2023/12/28 07:28:32;;;;;;;;;;;;;;;3.93;69.59;100277.72;4376070;32;33757;-88
2023/12/28 07:31:02;;;;;;;;;;;;;;;3.87;69.56;100290.38;4372321;32;33862;-88
2023/12/28 07:33:31;;;;;;;;;;;;;;;3.51;71.31;100293.81;4370683;32;33946;-88
2023/12/28 07:36:02;;;;;;;;;;;;;;;3.80;71.06;100287.69;4371301;32;33514;-88
2023/12/28 07:38:31;;;;;;;;;;;;;;;3.97;70.66;100290.66;4375757;32;34011;-88
2023/12/28 07:41:00;;;;;;;;;;;;;;;4.23;70.15;100295.53;4370877;32;33308;-88
2023/12/28 07:43:29;;;;;;;;;;;;;;;4.56;69.57;100297.91;4371211;32;32468;-88
2023/12/28 07:46:07;;;;;;;;;;;;;;;4.21;70.75;100298.03;4370204;32;34476;-88
2023/12/28 07:48:35;;;;;;;;;;;;;;;4.20;71.08;100304.00;4371696;32;33401;-88
2023/12/28 07:51:27;;;;;;;;;;;;;;;4.14;71.82;100297.87;4372421;32;33717;-88
2023/12/28 07:53:56;;;;;;;;;;;;;;;4.40;70.89;100301.03;4368144;32;34599;-88
2023/12/28 07:56:26;;;;;;;;;;;;;;;4.48;70.46;100310.63;4369807;32;33632;-88
2023/12/28 07:58:59;;;;;;;;;;;;;;;4.32;71.00;100305.09;4374193;32;34133;-89
2023/12/28 08:04:03;;;;;;;;;;;;;;;4.25;71.25;100296.41;4370612;32;33141;-89
2023/12/28 08:06:35;;;;;;;;;;;;;;;4.53;71.06;100299.56;4365635;32;33464;-88
2023/12/28 08:09:03;;;;;;;;;;;;;;;4.44;71.16;100290.81;4369119;32;33908;-88
2023/12/28 08:11:32;;;;;;;;;;;;;;;4.45;71.21;100292.56;4369935;32;33334;-89
2023/12/28 08:14:07;;;;;;;;;;;;;;;4.46;71.00;100293.44;4373166;32;33685;-89
2023/12/28 08:16:38;;;;;;;;;;;;;;;4.37;72.81;100277.81;4371965;32;33856;-89
2023/12/28 08:19:06;;;;;;;;;;;;;;;3.96;75.47;100280.34;4370032;32;33916;-90
2023/12/28 08:21:38;;;;;;;;;;;;;;;3.91;76.14;100276.81;4368084;32;34055;-90
2023/12/28 08:24:07;;;;;;;;;;;;;;;4.06;76.47;100285.72;4369931;32;33322;-91
2023/12/28 08:26:44;;;;;;;;;;;;;;;4.48;75.04;100290.06;4375295;32;34394;-90
2023/12/28 08:29:13;;;;;;;;;;;;;;;3.98;77.09;100292.38;4370465;32;33023;-90
2023/12/28 08:31:42;;;;;;;;;;;;;;;3.90;77.77;100299.03;4370520;32;34010;-90
2023/12/28 08:34:16;;;;;;;;;;;;;;;4.18;76.99;100297.09;4369360;32;33772;-90
2023/12/28 08:36:47;;;;;;;;;;;;;;;4.10;76.78;100308.91;4369848;32;34352;-90
2023/12/28 08:39:16;;;;;;;;;;;;;;;3.94;77.72;100311.13;4374255;32;34600;-90
2023/12/28 08:41:47;;;;;;;;;;;;;;;4.59;75.49;100308.28;4373157;32;32545;-90
2023/12/28 08:44:16;;;;;;;;;;;;;;;4.45;76.62;100299.41;4367486;32;32594;-90
2023/12/28 08:46:47;;;;;;;;;;;;;;;4.64;75.83;100314.38;4369426;32;34971;-90
2023/12/28 08:49:15;;;;;;;;;;;;;;;4.69;75.41;100311.91;4369124;32;34266;-91
2023/12/28 08:51:44;;;;;;;;;;;;;;;4.48;77.03;100307.19;4370557;32;34278;-90
2023/12/28 08:54:16;;;;;;;;;;;;;;;4.34;77.23;100308.59;4364069;32;32698;-91
2023/12/28 08:56:52;;;;;;;;;;;;;;;4.51;76.17;100307.25;4368329;32;33267;-91
2023/12/28 08:59:24;;;;;;;;;;;;;;;5.09;74.81;100310.97;4369654;32;34599;-91
2023/12/28 09:02:01;;;;;;;;;;;;;;;4.90;76.46;100308.88;4374167;32;34710;-91
2023/12/28 09:04:32;;;;;;;;;;;;;;;5.10;75.46;100305.00;4366345;32;33057;-90
2023/12/28 09:07:02;;;;;;;;;;;;;;;4.50;76.72;100300.38;4367737;32;33934;-91
2023/12/28 09:09:37;;;;;;;;;;;;;;;4.30;78.68;100304.22;4365791;32;33642;-91
2023/12/28 09:12:05;;;;;;;;;;;;;;;4.41;77.48;100301.03;4367909;32;35104;-91
2023/12/28 09:14:37;;;;;;;;;;;;;;;4.64;77.85;100303.22;4374126;32;34800;-91
2023/12/28 09:17:09;;;;;;;;;;;;;;;5.40;74.33;100302.97;4369237;32;33663;-91
2023/12/28 09:19:41;;;;;;;;;;;;;;;5.32;74.64;100298.56;4373273;32;35139;-91
2023/12/28 09:22:14;;;;;;;;;;;;;;;5.27;75.06;100299.31;4360914;32;33671;-90
2023/12/28 09:25:05;;;;;;;;;;;;;;;5.82;72.64;100291.63;4362875;32;32687;-91
2023/12/28 09:27:33;;;;;;;;;;;;;;;5.89;72.47;100289.19;4374069;32;34878;-90
2023/12/28 09:30:03;;;;;;;;;;;;;;;5.92;72.25;100281.53;4373614;32;33633;-90
2023/12/28 09:32:33;;;;;;;;;;;;;;;5.40;74.72;100285.81;4372870;32;34679;-90
2023/12/28 09:35:02;;;;;;;;;;;;;;;5.42;75.21;100273.84;4372263;32;33396;-90
2023/12/28 09:37:31;;;;;;;;;;;;;;;5.10;77.07;100273.28;4369269;32;34540;-90
2023/12/28 09:39:59;;;;;;;;;;;;;;;5.92;73.67;100265.19;4369806;32;34000;-90
2023/12/28 09:42:33;;;;;;;;;;;;;;;5.92;73.73;100266.06;4371729;32;33537;-90
2023/12/28 09:45:03;;;;;;;;;;;;;;;6.24;72.22;100257.97;4371894;32;33988;-89
2023/12/28 09:47:36;;;;;;;;;;;;;;;5.86;74.57;100255.66;4371491;32;33527;-90
2023/12/28 09:50:09;;;;;;;;;;;;;;;5.41;75.83;100248.09;4370412;32;34147;-89
2023/12/28 09:52:38;;;;;;;;;;;;;;;6.07;73.74;100249.16;4361152;32;34228;-89
2023/12/28 09:55:10;;;;;;;;;;;;;;;5.95;73.99;100245.53;4359041;32;33065;-90
2023/12/28 09:57:39;;;;;;;;;;;;;;;5.46;75.92;100241.31;4367332;32;33804;-90
2023/12/28 10:00:13;;;;;;;;;;;;;;;5.82;74.36;100235.84;4375821;32;34700;-90
2023/12/28 10:02:44;;;;;;;;;;;;;;;6.52;72.31;100230.81;4374102;32;34271;-89
2023/12/28 10:05:14;;;;;;;;;;;;;;;6.47;72.84;100224.75;4372496;32;33062;-90
2023/12/28 10:07:43;;;;;;;;;;;;;;;6.61;72.68;100217.19;4372314;32;34142;-90
2023/12/28 10:10:14;;;;;;;;;;;;;;;6.60;73.08;100221.47;4375210;32;33900;-90
2023/12/28 10:12:43;;;;;;;;;;;;;;;6.88;71.44;100208.00;4376270;32;33837;-89
2023/12/28 10:15:12;;;;;;;;;;;;;;;6.91;71.22;100205.44;4366404;32;34105;-90
2023/12/28 10:17:48;;;;;;;;;;;;;;;6.91;71.12;100198.59;4358102;32;33978;-90
2023/12/28 10:20:19;;;;;;;;;;;;;;;7.42;68.95;100201.62;4373416;32;33625;-90
2023/12/28 10:22:47;;;;;;;;;;;;;;;7.09;69.81;100199.63;4357445;32;33036;-90
2023/12/28 10:25:16;;;;;;;;;;;;;;;7.50;68.91;100192.22;4373760;32;33172;-90
2023/12/28 10:27:45;;;;;;;;;;;;;;;7.51;68.72;100191.34;4362046;32;33319;-90
2023/12/28 10:30:14;;;;;;;;;;;;;;;7.45;69.26;100199.91;4372121;32;35060;-90
2023/12/28 10:32:44;;;;;;;;;;;;;;;7.79;67.44;100187.25;4365110;32;34401;-90
2023/12/28 10:35:13;;;;;;;;;;;;;;;7.67;68.29;100187.16;4374884;32;33025;-90
2023/12/28 10:37:50;;;;;;;;;;;;;;;7.80;67.59;100183.78;4370944;32;32803;-90
2023/12/28 10:40:26;;;;;;;;;;;;;;;7.76;67.59;100181.22;4371328;32;34120;-90
2023/12/28 10:42:55;;;;;;;;;;;;;;;7.70;68.16;100171.69;4370332;32;33701;-89
2023/12/28 10:45:25;;;;;;;;;;;;;;;7.63;69.20;100175.06;4370358;32;32645;-90
2023/12/28 10:48:05;;;;;;;;;;;;;;;7.89;68.05;100175.25;4375078;32;33913;-90
2023/12/28 10:50:37;;;;;;;;;;;;;;;8.05;67.74;100173.63;4372363;32;33717;-90
2023/12/28 10:53:09;;;;;;;;;;;;;;;8.10;67.63;100166.75;4369892;32;34428;-90
2023/12/28 10:55:40;;;;;;;;;;;;;;;8.25;66.74;100173.69;4368472;32;33749;-90
2023/12/28 10:58:13;;;;;;;;;;;;;;;8.18;67.41;100159.88;4371338;32;33862;-90
2023/12/28 11:00:42;;;;;;;;;;;;;;;8.28;67.01;100166.78;4374760;32;34861;-90
2023/12/28 11:03:12;;;;;;;;;;;;;;;8.51;65.98;100158.31;4372165;32;33622;-90
2023/12/28 11:05:42;;;;;;;;;;;;;;;8.47;66.12;100159.16;4371337;32;31919;-89
2023/12/28 11:08:11;;;;;;;;;;;;;;;8.35;66.38;100152.19;4371892;32;33379;-90
2023/12/28 11:10:40;;;;;;;;;;;;;;;8.26;67.01;100152.13;4374875;32;33311;-90
2023/12/28 11:13:12;;;;;;;;;;;;;;;8.44;66.24;100152.25;4370594;32;34731;-90
2023/12/28 11:15:43;;;;;;;;;;;;;;;8.39;66.28;100135.84;4369779;32;34420;-89
2023/12/28 11:18:21;;;;;;;;;;;;;;;8.31;66.71;100135.81;4362340;32;33596;-90
2023/12/28 11:20:52;;;;;;;;;;;;;;;8.33;67.23;100136.66;4367746;32;33212;-90
2023/12/28 11:23:24;;;;;;;;;;;;;;;8.58;65.99;100130.72;4374814;32;34123;-89
2023/12/28 11:25:53;;;;;;;;;;;;;;;8.48;66.49;100140.19;4354185;32;32956;-89
2023/12/28 11:28:30;;;;;;;;;;;;;;;8.71;65.22;100133.34;4371127;32;34736;-89
2023/12/28 11:30:59;;;;;;;;;;;;;;;8.76;64.94;100130.75;4370626;32;33840;-90
2023/12/28 11:33:32;;;;;;;;;;;;;;;8.64;65.42;100128.16;4371190;32;34157;-89
2023/12/28 11:36:02;;;;;;;;;;;;;;;8.65;65.61;100128.16;4362841;32;33619;-90
2023/12/28 11:38:30;;;;;;;;;;;;;;;8.88;64.52;100135.94;4362064;32;34044;-90
2023/12/28 11:40:59;;;;;;;;;;;;;;;8.70;65.43;100129.03;4372436;32;34233;-89
2023/12/28 11:43:33;;;;;;;;;;;;;;;8.68;65.40;100124.72;4371171;32;34195;-89
2023/12/28 11:46:05;;;;;;;;;;;;;;;8.88;64.57;100110.06;4374743;32;33641;-89
2023/12/28 11:48:36;;;;;;;;;;;;;;;8.88;64.66;100089.38;4367777;32;33826;-89
2023/12/28 11:51:07;;;;;;;;;;;;;;;9.03;64.16;100083.31;4373691;32;34721;-89
2023/12/28 11:53:36;;;;;;;;;;;;;;;8.94;64.57;100084.22;4366419;32;33742;-90
2023/12/28 11:56:09;;;;;;;;;;;;;;;8.84;65.09;100081.59;4356734;32;33460;-89
2023/12/28 11:58:37;;;;;;;;;;;;;;;9.04;64.20;100073.88;4374659;32;33787;-89
2023/12/28 12:01:06;;;;;;;;;;;;;;;8.81;65.10;100072.13;4367678;32;35103;-89
2023/12/28 12:03:38;;;;;;;;;;;;;;;8.81;65.34;100064.34;4369896;32;33936;-89
2023/12/28 12:06:07;;;;;;;;;;;;;;;8.95;64.79;100075.56;4369897;32;33637;-89
2023/12/28 12:08:39;;;;;;;;;;;;;;;9.06;64.49;100078.16;4372583;32;34877;-89
2023/12/28 12:11:08;;;;;;;;;;;;;;;9.07;64.62;100074.69;4371608;32;34291;-90
2023/12/28 12:13:42;;;;;;;;;;;;;;;9.13;64.22;100079.00;4369893;32;35311;-89
2023/12/28 12:16:11;;;;;;;;;;;;;;;9.13;63.93;100069.53;4368062;32;33368;-89
2023/12/28 12:18:43;;;;;;;;;;;;;;;9.12;63.95;100065.22;4370527;32;34464;-89
2023/12/28 12:21:15;;;;;;;;;;;;;;;9.01;64.83;100066.06;4375139;32;33273;-89
2023/12/28 12:23:43;;;;;;;;;;;;;;;9.29;63.78;100061.72;4370097;32;33669;-89
2023/12/28 12:26:21;;;;;;;;;;;;;;;9.24;63.91;100061.75;4364229;32;32971;-89
2023/12/28 12:28:49;;;;;;;;;;;;;;;9.32;63.74;100059.97;4368141;32;34281;-89
2023/12/28 12:31:29;;;;;;;;;;;;;;;9.40;63.82;100054.81;4365939;32;33926;-89
2023/12/28 12:34:30;;;;;;;;;;;;;;;9.41;64.03;100048.75;4373080;32;33612;-89
2023/12/28 12:37:05;;;;;;;;;;;;;;;9.23;64.62;100049.66;4371377;32;32709;-90
2023/12/28 12:39:39;;;;;;;;;;;;;;;9.15;65.11;100043.63;4367199;32;34518;-89
2023/12/28 12:42:20;;;;;;;;;;;;;;;9.31;64.36;100055.69;4369003;32;33937;-89
2023/12/28 12:44:56;;;;;;;;;;;;;;;9.36;64.44;100053.94;4364506;32;34040;-89
2023/12/28 12:47:34;;;;;;;;;;;;;;;9.52;64.52;100062.53;4365673;32;32991;-89
2023/12/28 12:50:05;;;;;;;;;;;;;;;9.46;64.45;100056.50;4367687;32;33973;-89
2023/12/28 12:52:40;;;;;;;;;;;;;;;9.32;64.90;100059.12;4367713;32;34140;-89
2023/12/28 12:55:12;;;;;;;;;;;;;;;9.21;64.55;100063.50;4366087;32;33553;-89
2023/12/28 12:57:41;;;;;;;;;;;;;;;9.42;63.78;100055.66;4369087;32;32361;-89
2023/12/28 13:00:11;;;;;;;;;;;;;;;9.41;63.82;100048.75;4372306;32;33599;-89
2023/12/28 13:02:45;;;;;;;;;;;;;;;9.40;63.98;100053.06;4372253;32;35033;-89
2023/12/28 13:05:22;;;;;;;;;;;;;;;9.34;64.09;100045.31;4370239;32;34322;-89
2023/12/28 13:07:52;;;;;;;;;;;;;;;9.32;64.06;100038.41;4369761;32;32705;-89
2023/12/28 13:10:28;;;;;;;;;;;;;;;9.17;64.30;100035.00;4369499;32;34237;-89
2023/12/28 13:12:58;;;;;;;;;;;;;;;9.54;63.18;100034.03;4376025;32;34994;-89
2023/12/28 13:15:27;;;;;;;;;;;;;;;9.25;64.22;100036.72;4369685;32;33165;-89